createdAt,value
2019-04-07T00:02:17.921Z,6.60
2019-04-07T00:04:46.688Z,6.60
2019-04-07T00:07:15.915Z,6.60
2019-04-07T00:09:44.761Z,6.50
2019-04-07T00:12:13.785Z,6.60
2019-04-07T00:14:42.518Z,6.50
2019-04-07T00:17:12.134Z,6.40
2019-04-07T00:19:40.966Z,6.40
2019-04-07T00:22:09.557Z,6.40
2019-04-07T00:24:39.218Z,6.40
2019-04-07T00:27:07.929Z,6.40
2019-04-07T00:29:36.653Z,6.40
2019-04-07T00:32:05.935Z,6.30
2019-04-07T00:34:34.765Z,6.30
2019-04-07T00:37:03.314Z,6.20
2019-04-07T00:39:32.313Z,6.20
2019-04-07T00:42:00.992Z,6.20
2019-04-07T00:44:30.011Z,6.20
2019-04-07T00:46:58.741Z,6.10
2019-04-07T00:49:28.054Z,6.20
2019-04-07T00:51:57.607Z,6.20
2019-04-07T00:54:26.165Z,6.20
2019-04-07T00:56:54.741Z,6.20
2019-04-07T00:59:23.424Z,6.20
2019-04-07T01:01:52.592Z,6.00
2019-04-07T01:04:21.283Z,6.00
2019-04-07T01:06:50.059Z,6.00
2019-04-07T01:09:18.844Z,6.00
2019-04-07T01:11:47.487Z,5.90
2019-04-07T01:14:16.068Z,6.00
2019-04-07T01:16:45.536Z,6.00
2019-04-07T01:19:14.667Z,6.00
2019-04-07T01:21:43.579Z,5.90
2019-04-07T01:24:12.306Z,6.00
2019-04-07T01:26:42.034Z,5.90
2019-04-07T01:29:10.802Z,5.90
2019-04-07T01:31:39.551Z,6.00
2019-04-07T01:34:08.104Z,5.90
2019-04-07T01:36:36.984Z,5.90
2019-04-07T01:39:09.161Z,5.90
2019-04-07T01:41:48.419Z,5.90
2019-04-07T01:44:21.709Z,5.90
2019-04-07T01:46:54.842Z,5.90
2019-04-07T01:49:33.911Z,5.80
2019-04-07T01:52:16.174Z,5.80
2019-04-07T01:54:46.385Z,5.80
2019-04-07T01:57:33.790Z,5.80
2019-04-07T02:00:04.668Z,5.80
2019-04-07T02:02:46.934Z,5.80
2019-04-07T02:05:34.261Z,5.80
2019-04-07T02:08:20.943Z,5.70
2019-04-07T02:10:51.624Z,5.70
2019-04-07T02:13:31.199Z,5.60
2019-04-07T02:16:08.102Z,5.60
2019-04-07T02:18:44.290Z,5.60
2019-04-07T02:21:18.365Z,5.60
2019-04-07T02:23:57.957Z,5.60
2019-04-07T02:26:28.854Z,5.60
2019-04-07T02:29:14.470Z,5.60
2019-04-07T02:32:01.441Z,5.50
2019-04-07T02:34:38.079Z,5.50
2019-04-07T02:37:11.927Z,5.50
2019-04-07T02:39:48.658Z,5.50
2019-04-07T02:42:19.113Z,5.40
2019-04-07T02:44:55.277Z,5.40
2019-04-07T02:47:41.679Z,5.40
2019-04-07T02:50:17.835Z,5.40
2019-04-07T02:52:57.317Z,5.30
2019-04-07T02:55:28.110Z,5.30
2019-04-07T02:57:58.571Z,5.40
2019-04-07T03:00:41.452Z,5.40
2019-04-07T03:03:14.555Z,5.30
2019-04-07T03:05:51.149Z,5.30
2019-04-07T03:08:30.657Z,5.30
2019-04-07T03:11:18.110Z,5.20
2019-04-07T03:13:58.527Z,5.30
2019-04-07T03:16:44.794Z,5.20
2019-04-07T03:19:15.491Z,5.20
2019-04-07T03:22:02.854Z,5.20
2019-04-07T03:24:36.828Z,5.30
2019-04-07T03:27:16.273Z,5.30
2019-04-07T03:29:53.365Z,5.20
2019-04-07T03:32:42.834Z,5.10
2019-04-07T03:35:16.066Z,5.10
2019-04-07T03:38:03.002Z,5.10
2019-04-07T03:40:33.549Z,5.10
2019-04-07T03:43:22.050Z,5.10
2019-04-07T03:45:52.305Z,5.10
2019-04-07T03:48:25.046Z,5.10
2019-04-07T03:51:07.234Z,5.10
2019-04-07T03:53:43.551Z,5.10
2019-04-07T03:56:14.498Z,5.00
2019-04-07T03:59:01.049Z,5.10
2019-04-07T04:01:47.918Z,5.10
2019-04-07T04:04:34.643Z,5.10
2019-04-07T04:07:22.687Z,5.10
2019-04-07T04:09:45.654Z,5.10
2019-04-07T04:12:18.641Z,5.10
2019-04-07T04:14:58.848Z,5.10
2019-04-07T04:17:28.307Z,5.10
2019-04-07T04:19:57.384Z,5.10
2019-04-07T04:22:26.062Z,5.20
2019-04-07T04:24:55.564Z,5.10
2019-04-07T04:27:24.289Z,5.10
2019-04-07T04:29:53.377Z,5.10
2019-04-07T04:32:23.136Z,5.10
2019-04-07T04:34:51.997Z,5.00
2019-04-07T04:37:34.771Z,5.00
2019-04-07T04:39:51.222Z,5.00
2019-04-07T04:42:20.404Z,5.00
2019-04-07T04:44:49.179Z,5.00
2019-04-07T04:47:18.850Z,5.00
2019-04-07T04:49:48.346Z,5.00
2019-04-07T04:52:17.887Z,4.90
2019-04-07T04:54:47.475Z,4.90
2019-04-07T04:57:16.352Z,4.90
2019-04-07T04:59:45.083Z,4.90
2019-04-07T05:02:13.742Z,4.90
2019-04-07T05:04:42.394Z,5.00
2019-04-07T05:07:11.274Z,5.00
2019-04-07T05:09:46.500Z,5.00
2019-04-07T05:12:10.356Z,5.00
2019-04-07T05:14:39.061Z,5.00
2019-04-07T05:17:07.610Z,5.00
2019-04-07T05:19:37.203Z,4.90
2019-04-07T05:22:06.104Z,5.10
2019-04-07T05:24:35.190Z,5.10
2019-04-07T05:27:03.933Z,5.10
2019-04-07T05:29:33.948Z,5.20
2019-04-07T05:32:02.629Z,5.30
2019-04-07T05:34:31.283Z,5.30
2019-04-07T05:36:59.986Z,5.30
2019-04-07T05:39:28.586Z,5.60
2019-04-07T05:41:57.375Z,5.50
2019-04-07T05:44:26.676Z,5.60
2019-04-07T05:46:56.043Z,5.60
2019-04-07T05:49:24.902Z,5.70
2019-04-07T05:51:53.589Z,5.80
2019-04-07T05:54:22.517Z,5.80
2019-04-07T05:56:51.467Z,5.80
2019-04-07T05:59:20.105Z,5.70
2019-04-07T06:01:51.648Z,5.90
2019-04-07T06:04:19.316Z,5.90
2019-04-07T06:06:51.246Z,5.90
2019-04-07T06:09:20.583Z,5.90
2019-04-07T06:11:49.743Z,5.90
2019-04-07T06:14:19.101Z,6.00
2019-04-07T06:16:51.888Z,6.40
2019-04-07T06:19:18.288Z,6.50
2019-04-07T06:21:48.833Z,6.50
2019-04-07T06:24:18.378Z,6.40
2019-04-07T06:26:49.851Z,6.70
2019-04-07T06:29:18.296Z,6.60
2019-04-07T06:31:47.155Z,7.10
2019-04-07T06:34:16.182Z,7.30
2019-04-07T06:36:45.080Z,7.80
2019-04-07T06:39:17.225Z,8.00
2019-04-07T06:41:44.369Z,8.00
2019-04-07T06:44:15.834Z,7.70
2019-04-07T06:47:03.884Z,7.70
2019-04-07T06:49:33.777Z,7.90
2019-04-07T06:52:04.815Z,7.70
2019-04-07T06:54:38.741Z,7.80
2019-04-07T06:57:24.457Z,7.60
2019-04-07T07:00:00.919Z,7.70
2019-04-07T07:02:47.806Z,7.80
2019-04-07T07:05:34.946Z,7.80
2019-04-07T07:08:19.375Z,7.70
2019-04-07T07:10:54.318Z,7.50
2019-04-07T07:13:30.295Z,7.80
2019-04-07T07:15:59.186Z,8.50
2019-04-07T07:18:38.106Z,8.80
2019-04-07T07:21:11.248Z,9.40
2019-04-07T07:23:44.858Z,9.60
2019-04-07T07:26:11.877Z,8.60
2019-04-07T07:28:42.892Z,8.90
2019-04-07T07:31:10.883Z,10.60
2019-04-07T07:33:41.790Z,10.80
2019-04-07T07:36:10.015Z,11.00
2019-04-07T07:38:38.694Z,11.30
2019-04-07T07:41:07.439Z,11.50
2019-04-07T07:43:36.033Z,12.00
2019-04-07T07:46:05.528Z,12.00
2019-04-07T07:48:34.278Z,12.20
2019-04-07T07:51:03.949Z,12.50
2019-04-07T07:53:32.952Z,13.40
2019-04-07T07:56:02.121Z,15.00
2019-04-07T07:58:33.308Z,14.90
2019-04-07T08:01:01.496Z,12.90
2019-04-07T08:03:30.350Z,11.70
2019-04-07T08:05:59.075Z,11.00
2019-04-07T08:08:27.914Z,11.30
2019-04-07T08:11:00.388Z,12.20
2019-04-07T08:13:26.900Z,12.80
2019-04-07T08:15:57.173Z,13.30
2019-04-07T08:18:26.207Z,13.20
2019-04-07T08:20:54.870Z,11.80
2019-04-07T08:23:23.736Z,11.90
2019-04-07T08:25:54.475Z,11.20
2019-04-07T08:28:22.596Z,10.40
2019-04-07T08:30:51.378Z,10.40
2019-04-07T08:33:20.250Z,11.20
2019-04-07T08:35:49.079Z,11.30
2019-04-07T08:38:20.023Z,11.30
2019-04-07T08:40:49.656Z,11.20
2019-04-07T08:43:21.199Z,11.30
2019-04-07T08:45:48.813Z,11.10
2019-04-07T08:48:19.389Z,11.40
2019-04-07T08:50:48.546Z,11.30
2019-04-07T08:53:17.266Z,10.80
2019-04-07T08:55:48.408Z,10.70
2019-04-07T08:58:24.942Z,10.20
2019-04-07T09:00:50.999Z,10.20
2019-04-07T09:03:18.530Z,10.20
2019-04-07T09:05:48.230Z,10.90
2019-04-07T09:08:17.806Z,11.60
2019-04-07T09:11:06.111Z,12.90
2019-04-07T09:13:34.783Z,13.20
2019-04-07T09:16:23.611Z,13.90
2019-04-07T09:19:08.311Z,14.90
2019-04-07T09:21:51.800Z,15.10
2019-04-07T09:24:39.162Z,15.00
2019-04-07T09:27:13.955Z,15.40
2019-04-07T09:29:59.985Z,17.00
2019-04-07T09:32:47.253Z,15.60
2019-04-07T09:35:33.888Z,15.70
2019-04-07T09:38:04.429Z,15.90
2019-04-07T09:40:46.240Z,18.50
2019-04-07T09:43:24.856Z,19.20
2019-04-07T09:45:55.201Z,18.70
2019-04-07T09:48:32.067Z,17.80
2019-04-07T09:51:18.590Z,17.80
2019-04-07T09:54:05.382Z,17.30
2019-04-07T09:56:45.125Z,16.60
2019-04-07T09:59:28.454Z,17.00
2019-04-07T10:02:13.255Z,15.40
2019-04-07T10:04:49.916Z,14.70
2019-04-07T10:07:40.293Z,13.60
2019-04-07T10:10:15.927Z,12.60
2019-04-07T10:13:01.003Z,12.30
2019-04-07T10:15:31.683Z,12.40
2019-04-07T10:18:02.174Z,11.90
2019-04-07T10:20:33.607Z,12.00
2019-04-07T10:23:16.278Z,11.90
2019-04-07T10:26:01.691Z,12.10
2019-04-07T10:28:32.330Z,11.90
2019-04-07T10:31:09.248Z,11.80
2019-04-07T10:33:49.338Z,12.10
2019-04-07T10:36:31.906Z,12.00
2019-04-07T10:39:05.059Z,12.10
2019-04-07T10:41:51.526Z,12.50
2019-04-07T10:44:27.697Z,13.10
2019-04-07T10:47:14.501Z,14.00
2019-04-07T10:50:06.889Z,14.70
2019-04-07T10:52:41.718Z,14.90
2019-04-07T10:55:11.999Z,14.10
2019-04-07T10:57:45.079Z,14.00
2019-04-07T11:00:15.802Z,15.10
2019-04-07T11:02:52.936Z,15.50
2019-04-07T11:05:37.331Z,16.10
2019-04-07T11:08:07.809Z,15.60
2019-04-07T11:10:40.902Z,15.30
2019-04-07T11:13:23.202Z,15.00
2019-04-07T11:16:09.268Z,15.70
2019-04-07T11:18:40.256Z,16.70
2019-04-07T11:21:13.542Z,16.30
2019-04-07T11:24:01.215Z,16.30
2019-04-07T11:26:35.276Z,16.60
2019-04-07T11:29:11.623Z,17.10
2019-04-07T11:31:45.015Z,16.30
2019-04-07T11:34:24.564Z,17.10
2019-04-07T11:36:58.025Z,18.00
2019-04-07T11:39:35.087Z,17.70
2019-04-07T11:42:17.338Z,17.40
2019-04-07T11:44:54.138Z,17.90
2019-04-07T11:47:26.837Z,17.20
2019-04-07T11:50:06.047Z,17.20
2019-04-07T11:52:36.539Z,17.80
2019-04-07T11:55:29.167Z,17.20
2019-04-07T11:58:14.868Z,16.50
2019-04-07T12:00:57.108Z,16.90
2019-04-07T12:03:43.833Z,16.70
2019-04-07T12:06:30.625Z,16.40
2019-04-07T12:09:06.929Z,15.80
2019-04-07T12:11:37.294Z,15.50
2019-04-07T12:14:24.435Z,15.00
2019-04-07T12:17:05.019Z,14.90
2019-04-07T12:19:35.523Z,15.20
2019-04-07T12:22:21.692Z,15.30
2019-04-07T12:25:10.558Z,15.70
2019-04-07T12:27:43.891Z,15.40
2019-04-07T12:30:28.435Z,15.00
2019-04-07T12:33:07.404Z,14.80
2019-04-07T12:35:36.745Z,14.70
2019-04-07T12:38:12.238Z,14.80
2019-04-07T12:40:45.259Z,14.90
2019-04-07T12:43:31.566Z,15.00
2019-04-07T12:46:19.306Z,15.10
2019-04-07T12:48:50.039Z,15.20
2019-04-07T12:51:23.505Z,14.90
2019-04-07T12:53:57.453Z,14.70
2019-04-07T12:56:44.529Z,15.00
2019-04-07T12:59:18.278Z,15.00
2019-04-07T13:02:05.595Z,14.70
2019-04-07T13:04:36.468Z,14.60
2019-04-07T13:07:06.832Z,14.70
2019-04-07T13:09:37.116Z,14.70
2019-04-07T13:12:14.040Z,14.70
2019-04-07T13:14:44.315Z,14.60
2019-04-07T13:17:34.417Z,14.60
2019-04-07T13:20:18.125Z,14.80
2019-04-07T13:22:55.456Z,14.80
2019-04-07T13:25:34.712Z,14.60
2019-04-07T13:28:08.289Z,14.60
2019-04-07T13:30:40.990Z,14.70
2019-04-07T13:33:20.260Z,15.00
2019-04-07T13:35:49.121Z,14.80
2019-04-07T13:38:28.249Z,14.50
2019-04-07T13:41:18.481Z,14.60
2019-04-07T13:44:07.169Z,14.60
2019-04-07T13:46:37.688Z,14.30
2019-04-07T13:49:14.820Z,14.40
2019-04-07T13:54:41.477Z,14.50
2019-04-07T13:57:15.540Z,14.50
2019-04-07T13:59:52.094Z,14.50
2019-04-07T14:02:29.939Z,14.50
2019-04-07T14:05:13.330Z,14.70
2019-04-07T14:07:49.161Z,14.70
2019-04-07T14:10:37.170Z,14.90
2019-04-07T14:13:07.459Z,15.30
2019-04-07T14:15:44.276Z,15.60
2019-04-07T14:18:15.326Z,15.30
2019-04-07T14:20:48.619Z,15.50
2019-04-07T14:23:34.274Z,15.50
2019-04-07T14:26:16.850Z,15.40
2019-04-07T14:28:47.613Z,15.40
2019-04-07T14:31:27.243Z,15.40
2019-04-07T14:34:03.617Z,15.20
2019-04-07T14:36:50.039Z,15.40
2019-04-07T14:39:36.920Z,15.40
2019-04-07T14:42:08.759Z,15.30
2019-04-07T14:44:57.839Z,15.30
2019-04-07T14:47:34.064Z,15.10
2019-04-07T14:50:11.889Z,15.00
2019-04-07T14:52:51.390Z,15.20
2019-04-07T14:55:30.298Z,15.30
2019-04-07T14:58:18.712Z,15.10
2019-04-07T15:01:05.919Z,15.10
2019-04-07T15:03:33.283Z,15.00
2019-04-07T15:06:01.950Z,14.90
2019-04-07T15:08:35.561Z,14.90
2019-04-07T15:11:23.884Z,15.00
2019-04-07T15:13:56.926Z,15.00
2019-04-07T15:16:24.627Z,14.80
2019-04-07T15:18:53.429Z,14.70
2019-04-07T15:21:22.201Z,14.70
2019-04-07T15:23:50.798Z,14.70
2019-04-07T15:26:20.364Z,14.90
2019-04-07T15:28:49.225Z,15.00
2019-04-07T15:31:19.468Z,15.00
2019-04-07T15:33:48.327Z,15.00
2019-04-07T15:36:18.729Z,14.80
2019-04-07T15:38:47.551Z,14.80
2019-04-07T15:41:18.222Z,14.80
2019-04-07T15:43:46.689Z,14.90
2019-04-07T15:46:18.092Z,14.70
2019-04-07T15:48:46.576Z,14.60
2019-04-07T15:51:15.363Z,14.50
2019-04-07T15:53:49.773Z,14.50
2019-04-07T15:56:17.273Z,14.70
2019-04-07T15:58:45.238Z,14.70
2019-04-07T16:01:15.005Z,14.40
2019-04-07T16:03:47.709Z,14.40
2019-04-07T16:06:16.218Z,14.50
2019-04-07T16:08:44.689Z,14.40
2019-04-07T16:11:13.457Z,14.20
2019-04-07T16:13:42.415Z,14.10
2019-04-07T16:16:14.598Z,13.90
2019-04-07T16:18:44.267Z,14.00
2019-04-07T16:21:14.286Z,13.80
2019-04-07T16:23:43.243Z,13.80
2019-04-07T16:26:11.906Z,13.80
2019-04-07T16:28:41.378Z,13.70
2019-04-07T16:31:11.009Z,13.60
2019-04-07T16:33:39.805Z,13.60
2019-04-07T16:36:08.669Z,13.70
2019-04-07T16:38:37.315Z,13.60
2019-04-07T16:41:06.586Z,13.50
2019-04-07T16:43:37.658Z,13.40
2019-04-07T16:46:06.487Z,13.40
2019-04-07T16:48:38.672Z,13.30
2019-04-07T16:51:06.034Z,13.30
2019-04-07T16:53:37.925Z,13.30
2019-04-07T16:56:05.341Z,13.20
2019-04-07T16:58:37.279Z,13.20
2019-04-07T17:01:04.691Z,13.20
2019-04-07T17:03:33.312Z,13.00
2019-04-07T17:06:02.969Z,13.00
2019-04-07T17:08:31.880Z,13.00
2019-04-07T17:11:05.212Z,12.90
2019-04-07T17:13:39.440Z,12.80
2019-04-07T17:16:01.444Z,12.70
2019-04-07T17:18:38.890Z,12.60
2019-04-07T17:21:14.423Z,12.50
2019-04-07T17:23:43.922Z,12.50
2019-04-07T17:26:13.623Z,12.50
2019-04-07T17:28:46.093Z,12.30
2019-04-07T17:31:14.148Z,12.30
2019-04-07T17:33:43.153Z,12.20
2019-04-07T17:36:15.386Z,12.20
2019-04-07T17:38:44.303Z,12.20
2019-04-07T17:41:15.544Z,12.20
2019-04-07T17:43:53.264Z,12.10
2019-04-07T17:46:20.368Z,11.90
2019-04-07T17:48:56.761Z,11.70
2019-04-07T17:51:36.329Z,11.50
2019-04-07T17:54:04.688Z,11.50
2019-04-07T17:56:35.762Z,11.50
2019-04-07T17:59:08.692Z,11.60
2019-04-07T18:01:55.433Z,11.60
2019-04-07T18:04:43.834Z,11.60
2019-04-07T18:07:30.083Z,11.60
2019-04-07T18:10:16.627Z,11.60
2019-04-07T18:12:49.804Z,11.50
2019-04-07T18:15:28.137Z,11.40
2019-04-07T18:18:10.461Z,11.20
2019-04-07T18:20:41.507Z,10.80
2019-04-07T18:23:18.534Z,10.60
2019-04-07T18:25:54.602Z,10.40
2019-04-07T18:28:34.036Z,10.30
2019-04-07T18:31:22.654Z,10.20
2019-04-07T18:34:09.976Z,10.10
2019-04-07T18:36:57.771Z,10.00
2019-04-07T18:39:35.171Z,9.90
2019-04-07T18:42:14.178Z,9.80
2019-04-07T18:45:01.787Z,10.00
2019-04-07T18:47:47.202Z,9.90
2019-04-07T18:50:28.624Z,9.80
2019-04-07T18:53:11.061Z,9.80
2019-04-07T18:55:59.873Z,9.70
2019-04-07T18:58:35.999Z,9.50
2019-04-07T19:01:12.381Z,9.50
2019-04-07T19:03:58.874Z,9.40
2019-04-07T19:06:46.431Z,9.40
2019-04-07T19:09:18.916Z,9.30
2019-04-07T19:12:05.889Z,9.30
2019-04-07T19:14:44.553Z,9.30
2019-04-07T19:17:10.837Z,9.20
2019-04-07T19:19:50.571Z,9.10
2019-04-07T19:22:26.763Z,9.10
2019-04-07T19:24:57.892Z,9.00
2019-04-07T19:27:40.611Z,9.00
2019-04-07T19:30:29.456Z,9.00
2019-04-07T19:33:12.173Z,8.90
2019-04-07T19:35:43.423Z,8.80
2019-04-07T19:38:30.635Z,8.80
2019-04-07T19:41:13.368Z,8.80
2019-04-07T19:43:56.494Z,8.80
2019-04-07T19:46:28.163Z,8.70
2019-04-07T19:49:18.961Z,8.80
2019-04-07T19:52:05.440Z,8.80
2019-04-07T19:54:33.402Z,9.00
2019-04-07T19:57:13.347Z,9.00
2019-04-07T19:59:46.515Z,9.00
2019-04-07T20:02:17.478Z,9.00
2019-04-07T20:04:53.736Z,8.90
2019-04-07T20:07:41.871Z,9.00
2019-04-07T20:10:19.934Z,9.00
2019-04-07T20:12:50.789Z,8.90
2019-04-07T20:15:22.104Z,9.00
2019-04-07T20:17:54.870Z,9.10
2019-04-07T20:20:30.247Z,9.00
2019-04-07T20:23:04.291Z,9.10
2019-04-07T20:25:46.165Z,9.10
2019-04-07T20:28:15.775Z,9.10
2019-04-07T20:30:48.414Z,9.00
2019-04-07T20:33:21.017Z,8.80
2019-04-07T20:36:03.325Z,8.80
2019-04-07T20:38:40.149Z,8.70
2019-04-07T20:41:25.682Z,8.50
2019-04-07T20:43:56.922Z,8.40
2019-04-07T20:46:44.816Z,8.20
2019-04-07T20:49:22.178Z,8.20
2019-04-07T20:52:08.955Z,8.10
2019-04-07T20:54:56.299Z,8.20
2019-04-07T20:57:42.863Z,8.20
2019-04-07T21:00:25.524Z,8.30
2019-04-07T21:03:11.222Z,8.40
2019-04-07T21:05:29.246Z,8.40
2019-04-07T21:08:02.603Z,8.60
2019-04-07T21:10:32.910Z,8.70
2019-04-07T21:13:03.453Z,8.90
2019-04-07T21:15:33.814Z,9.20
2019-04-07T21:18:04.199Z,9.30
2019-04-07T21:20:52.668Z,9.50
2019-04-07T21:23:23.299Z,9.60
2019-04-07T21:25:57.893Z,9.50
2019-04-07T21:28:38.013Z,9.50
2019-04-07T21:31:08.756Z,9.10
2019-04-07T21:33:38.976Z,8.70
2019-04-07T21:36:21.734Z,8.40
2019-04-07T21:38:54.235Z,8.00
2019-04-07T21:41:24.348Z,7.50
2019-04-07T21:44:09.702Z,7.40
2019-04-07T21:46:49.386Z,7.20
2019-04-07T21:49:22.839Z,7.00
2019-04-07T21:52:02.628Z,7.00
2019-04-07T21:54:38.337Z,7.00
2019-04-07T21:57:08.259Z,6.80
2019-04-07T21:59:59.027Z,6.80
2019-04-07T22:02:29.268Z,6.80
2019-04-07T22:04:59.607Z,6.60
2019-04-07T22:07:39.660Z,6.60
2019-04-07T22:10:10.086Z,6.60
2019-04-07T22:12:38.775Z,6.50
2019-04-07T22:15:13.483Z,6.60
2019-04-07T22:17:40.638Z,6.50
2019-04-07T22:20:10.594Z,6.30
2019-04-07T22:22:39.395Z,6.30
2019-04-07T22:25:09.814Z,6.30
2019-04-07T22:27:38.969Z,6.10
2019-04-07T22:30:11.516Z,6.10
2019-04-07T22:32:40.706Z,6.10
2019-04-07T22:35:10.626Z,6.00
2019-04-07T22:37:39.940Z,6.00
2019-04-07T22:40:14.761Z,6.00
2019-04-07T22:42:45.431Z,5.90
2019-04-07T22:45:14.818Z,5.80
2019-04-07T22:47:44.467Z,5.80
2019-04-07T22:50:13.850Z,5.80
2019-04-07T22:52:47.358Z,5.70
2019-04-07T22:55:13.227Z,5.60
2019-04-07T22:57:41.828Z,5.70
2019-04-07T23:00:12.985Z,5.60
2019-04-07T23:02:42.364Z,5.60
2019-04-07T23:05:11.486Z,5.50
2019-04-07T23:07:40.180Z,5.50
2019-04-07T23:10:09.144Z,5.50
2019-04-07T23:12:38.176Z,5.40
2019-04-07T23:15:07.770Z,5.30
2019-04-07T23:17:36.445Z,5.30
2019-04-07T23:20:08.306Z,5.20
2019-04-07T23:22:36.997Z,5.20
2019-04-07T23:25:07.903Z,5.20
2019-04-07T23:27:36.778Z,5.20
2019-04-07T23:30:09.277Z,5.20
2019-04-07T23:32:38.427Z,5.20
2019-04-07T23:35:08.276Z,5.10
2019-04-07T23:37:37.221Z,5.10
2019-04-07T23:40:06.950Z,5.10
2019-04-07T23:42:36.201Z,5.00
2019-04-07T23:45:06.856Z,5.00
2019-04-07T23:47:36.396Z,4.90
2019-04-07T23:50:07.120Z,4.90
2019-04-07T23:52:35.762Z,4.90
2019-04-07T23:55:04.566Z,4.90
2019-04-07T23:57:33.243Z,4.90
